createdAt,value
2019-04-24T00:04:21.846Z,99.90
2019-04-24T00:07:04.006Z,99.90
2019-04-24T00:09:21.860Z,99.90
2019-04-24T00:12:04.431Z,1.00
2019-04-24T00:34:34.680Z,99.90
2019-04-24T00:44:40.695Z,5.20
2019-04-24T00:47:17.104Z,16.80
2019-04-24T00:52:04.076Z,99.90
2019-04-24T00:54:29.768Z,99.90
2019-04-24T00:57:16.386Z,1.00
2019-04-24T00:59:36.333Z,99.90
2019-04-24T01:05:31.646Z,99.90
2019-04-24T01:18:08.916Z,1.00
2019-04-24T01:23:05.546Z,1.00
2019-04-24T01:33:22.699Z,99.90
2019-04-24T01:35:42.055Z,99.90
2019-04-24T01:38:15.654Z,93.80
2019-04-24T01:40:47.873Z,98.40
2019-04-24T01:43:18.159Z,99.90
2019-04-24T01:53:14.563Z,1.00
2019-04-24T01:55:31.673Z,1.00
2019-04-24T01:58:12.016Z,1.00
2019-04-24T02:03:10.222Z,99.90
2019-04-24T02:05:43.300Z,1.00
2019-04-24T02:18:38.347Z,99.90
2019-04-24T02:20:54.385Z,1.00
2019-04-24T02:23:26.100Z,48.00
2019-04-24T02:26:02.970Z,32.20
2019-04-24T02:28:29.651Z,99.90
2019-04-24T02:31:17.888Z,99.90
2019-04-24T02:36:29.756Z,99.90
2019-04-24T02:41:41.600Z,99.90
2019-04-24T02:43:54.800Z,99.90
2019-04-24T02:49:15.205Z,1.00
2019-04-24T02:51:26.031Z,1.00
2019-04-24T02:56:29.219Z,1.00
2019-04-24T02:59:05.144Z,1.00
2019-04-24T03:01:20.191Z,1.00
2019-04-24T03:03:55.017Z,1.00
2019-04-24T03:06:27.923Z,1.00
2019-04-24T03:08:55.334Z,1.00
2019-04-24T03:11:19.149Z,1.00
2019-04-24T03:14:16.975Z,1.00
2019-04-24T03:19:28.852Z,1.00
2019-04-24T03:21:59.465Z,1.00
2019-04-24T03:24:26.372Z,1.00
2019-04-24T03:29:26.545Z,1.00
2019-04-24T03:34:33.686Z,1.00
2019-04-24T03:37:01.246Z,1.00
2019-04-24T03:46:54.310Z,1.00
2019-04-24T03:54:29.338Z,1.00
2019-04-24T03:56:51.127Z,1.00
2019-04-24T04:05:14.253Z,1.00
2019-04-24T04:09:59.933Z,1.00
2019-04-24T04:12:58.950Z,1.00
2019-04-24T04:18:02.977Z,1.00
2019-04-24T04:20:13.811Z,1.00
2019-04-24T04:23:03.899Z,1.00
2019-04-24T04:25:38.196Z,1.00
2019-04-24T04:41:29.274Z,1.00
2019-04-24T04:47:03.711Z,1.00
2019-04-24T04:51:41.283Z,1.00
2019-04-24T04:54:11.379Z,1.00
2019-04-24T05:02:09.459Z,1.00
2019-04-24T05:35:03.134Z,1.00
2019-04-24T05:37:53.877Z,1.00
2019-04-24T05:40:27.171Z,1.00
2019-04-24T05:43:08.224Z,1.00
2019-04-24T05:45:23.018Z,1.00
2019-04-24T05:47:52.347Z,1.00
2019-04-24T05:50:33.912Z,1.00
2019-04-24T05:53:12.030Z,99.90
2019-04-24T05:55:50.907Z,99.90
2019-04-24T05:58:12.236Z,99.90
2019-04-24T06:00:42.877Z,99.90
2019-04-24T06:03:48.981Z,99.90
2019-04-24T06:06:16.224Z,99.90
2019-04-24T06:08:38.976Z,99.90
2019-04-24T06:11:04.153Z,99.90
2019-04-24T06:18:59.195Z,99.90
2019-04-24T06:24:15.993Z,99.90
2019-04-24T06:31:58.517Z,99.90
2019-04-24T06:49:25.933Z,99.90
2019-04-24T06:54:42.314Z,99.90
2019-04-24T07:10:08.867Z,99.90
2019-04-24T07:12:35.435Z,99.90
2019-04-24T07:15:09.231Z,99.90
2019-04-24T07:20:10.156Z,99.90
2019-04-24T07:22:59.761Z,99.90
2019-04-24T07:25:50.679Z,99.90
2019-04-24T07:28:16.190Z,99.90
2019-04-24T07:30:42.334Z,99.90
2019-04-24T07:33:06.602Z,99.90
2019-04-24T07:35:45.311Z,99.90
2019-04-24T07:38:08.872Z,99.90
2019-04-24T07:40:56.526Z,99.90
2019-04-24T07:46:01.817Z,99.90
2019-04-24T07:48:46.334Z,99.90
2019-04-24T07:53:48.841Z,99.90
2019-04-24T07:56:45.088Z,99.90
2019-04-24T07:58:49.325Z,99.90
2019-04-24T08:03:51.561Z,99.90
2019-04-24T08:06:23.631Z,99.90
2019-04-24T08:08:53.651Z,99.90
2019-04-24T08:11:24.385Z,99.90
2019-04-24T08:13:57.221Z,99.90
2019-04-24T08:16:44.668Z,99.90
2019-04-24T08:18:56.195Z,99.90
2019-04-24T08:21:26.083Z,99.90
2019-04-24T08:26:34.950Z,99.90
2019-04-24T08:28:54.109Z,99.90
2019-04-24T08:31:38.467Z,99.90
2019-04-24T08:36:28.787Z,99.90
2019-04-24T08:42:06.049Z,99.90
2019-04-24T08:44:30.600Z,99.90
2019-04-24T08:47:29.216Z,99.90
2019-04-24T08:49:41.895Z,99.90
2019-04-24T08:52:30.234Z,99.90
2019-04-24T08:54:38.754Z,99.90
2019-04-24T09:02:16.422Z,99.90
2019-04-24T09:07:26.912Z,99.90
2019-04-24T09:10:47.211Z,99.90
2019-04-24T09:15:17.022Z,99.90
2019-04-24T09:23:03.881Z,99.90
2019-04-24T09:25:57.584Z,99.90
2019-04-24T09:30:38.462Z,99.90
2019-04-24T09:36:16.211Z,99.90
2019-04-24T09:38:23.952Z,99.90
2019-04-24T09:45:55.642Z,99.90
2019-04-24T09:55:52.904Z,99.90
2019-04-24T10:06:49.143Z,99.90
2019-04-24T10:08:50.194Z,99.90
2019-04-24T10:11:34.283Z,99.90
2019-04-24T10:13:51.169Z,99.90
2019-04-24T10:16:16.524Z,99.90
2019-04-24T10:19:11.953Z,99.90
2019-04-24T10:21:50.757Z,99.90
2019-04-24T10:24:16.792Z,99.90
2019-04-24T10:32:31.382Z,99.90
2019-04-24T10:35:26.392Z,99.90
2019-04-24T10:38:18.953Z,99.90
2019-04-24T10:40:32.561Z,99.90
2019-04-24T10:43:04.991Z,99.90
2019-04-24T10:45:45.957Z,99.90
2019-04-24T10:48:25.134Z,99.90
2019-04-24T10:50:58.646Z,99.90
2019-04-24T10:53:49.947Z,99.90
2019-04-24T10:56:24.331Z,99.90
2019-04-24T10:58:45.534Z,99.90
2019-04-24T11:14:17.707Z,99.90
2019-04-24T11:17:07.350Z,99.90
2019-04-24T11:22:08.529Z,99.90
2019-04-24T11:24:44.025Z,99.90
2019-04-24T11:30:01.290Z,99.90
2019-04-24T11:32:28.409Z,99.90
2019-04-24T11:35:16.746Z,99.90
2019-04-24T11:37:56.074Z,99.90
2019-04-24T11:40:36.731Z,99.90
2019-04-24T11:42:54.384Z,99.90
2019-04-24T11:45:47.340Z,99.90
2019-04-24T11:48:32.237Z,99.90
2019-04-24T11:53:30.410Z,99.90
2019-04-24T11:55:58.422Z,99.90
2019-04-24T11:58:37.538Z,99.90
2019-04-24T12:00:57.880Z,99.90
2019-04-24T12:03:51.427Z,99.90
2019-04-24T12:06:10.756Z,99.90
2019-04-24T12:11:25.602Z,99.90
2019-04-24T12:16:25.056Z,99.90
2019-04-24T12:19:08.338Z,99.90
2019-04-24T12:24:04.539Z,99.90
2019-04-24T12:26:31.141Z,99.90
2019-04-24T12:29:16.072Z,99.90
2019-04-24T12:31:36.301Z,99.90
2019-04-24T12:34:03.138Z,99.90
2019-04-24T12:36:41.425Z,99.90
2019-04-24T12:39:14.717Z,99.90
2019-04-24T12:41:38.014Z,99.90
2019-04-24T12:49:33.144Z,99.90
2019-04-24T12:51:57.248Z,99.90
2019-04-24T12:54:31.376Z,99.90
2019-04-24T12:57:14.173Z,99.90
2019-04-24T13:04:51.921Z,99.90
2019-04-24T13:07:12.364Z,99.90
2019-04-24T13:09:46.618Z,99.90
2019-04-24T13:12:27.398Z,99.90
2019-04-24T13:15:11.881Z,99.90
2019-04-24T13:18:03.247Z,99.90
2019-04-24T13:19:39.039Z,99.90
2019-04-24T13:22:18.340Z,99.90
2019-04-24T13:25:13.481Z,99.90
2019-04-24T13:28:21.749Z,99.90
2019-04-24T13:30:58.535Z,99.90
2019-04-24T13:33:19.524Z,99.90
2019-04-24T13:35:55.706Z,99.90
2019-04-24T13:38:25.225Z,99.90
2019-04-24T13:40:57.889Z,99.90
2019-04-24T13:46:02.072Z,99.90
2019-04-24T13:50:51.051Z,99.90
2019-04-24T13:53:33.826Z,99.90
2019-04-24T13:55:53.154Z,99.90
2019-04-24T14:01:38.281Z,99.90
2019-04-24T14:04:09.060Z,99.90
2019-04-24T14:06:35.391Z,99.90
2019-04-24T14:13:59.552Z,99.90
2019-04-24T14:16:20.348Z,99.90
2019-04-24T14:21:25.022Z,99.90
2019-04-24T14:24:07.389Z,99.90
2019-04-24T14:26:34.754Z,99.90
2019-04-24T14:34:14.347Z,99.90
2019-04-24T14:36:49.307Z,99.90
2019-04-24T14:49:28.263Z,99.90
2019-04-24T14:51:41.141Z,99.90
2019-04-24T14:56:39.410Z,99.90
2019-04-24T14:59:20.732Z,99.90
2019-04-24T15:01:52.100Z,99.90
2019-04-24T15:04:11.908Z,99.90
2019-04-24T15:06:42.910Z,99.90
2019-04-24T15:09:17.090Z,99.90
2019-04-24T15:12:01.107Z,99.90
2019-04-24T15:17:00.108Z,99.90
2019-04-24T15:22:08.370Z,99.90
2019-04-24T15:26:49.994Z,99.90
2019-04-24T15:29:30.701Z,99.90
2019-04-24T15:31:55.793Z,99.90
2019-04-24T15:34:24.115Z,99.90
2019-04-24T15:36:57.273Z,99.90
2019-04-24T15:41:56.794Z,99.90
2019-04-24T15:44:21.490Z,99.90
2019-04-24T15:49:25.750Z,99.90
2019-04-24T15:51:31.228Z,99.90
2019-04-24T15:53:54.496Z,99.90
2019-04-24T15:56:23.028Z,99.90
2019-04-24T15:59:00.765Z,99.90
2019-04-24T16:01:56.266Z,99.90
2019-04-24T16:04:26.081Z,99.90
2019-04-24T16:06:30.261Z,99.90
2019-04-24T16:09:00.544Z,99.90
2019-04-24T16:11:29.048Z,99.90
2019-04-24T16:14:04.456Z,99.90
2019-04-24T16:16:55.039Z,99.90
2019-04-24T16:19:35.377Z,99.90
2019-04-24T16:21:57.689Z,99.90
2019-04-24T16:24:50.540Z,99.90
2019-04-24T16:26:58.228Z,99.90
2019-04-24T16:29:21.202Z,99.90
2019-04-24T16:32:23.892Z,99.90
2019-04-24T16:34:29.849Z,99.90
2019-04-24T16:37:03.192Z,99.90
2019-04-24T16:39:22.838Z,99.90
2019-04-24T16:44:48.051Z,99.90
2019-04-24T16:47:04.636Z,99.90
2019-04-24T16:54:44.638Z,99.90
2019-04-24T16:57:01.792Z,99.90
2019-04-24T16:59:21.949Z,99.90
2019-04-24T17:07:10.988Z,99.90
2019-04-24T17:09:57.747Z,99.90
2019-04-24T17:25:16.328Z,99.90
2019-04-24T17:35:22.823Z,99.90
2019-04-24T17:37:14.330Z,99.90
2019-04-24T17:39:50.475Z,99.90
2019-04-24T17:42:44.072Z,99.90
2019-04-24T17:45:22.275Z,99.90
2019-04-24T17:55:15.265Z,1.00
2019-04-24T17:59:53.417Z,1.00
2019-04-24T18:02:23.928Z,1.00
2019-04-24T18:04:52.921Z,94.40
2019-04-24T18:07:22.342Z,99.90
2019-04-24T18:09:52.162Z,99.90
2019-04-24T18:12:22.010Z,99.90
2019-04-24T18:14:50.938Z,1.00
2019-04-24T18:17:19.828Z,99.90
2019-04-24T18:19:49.230Z,60.30
2019-04-24T18:22:18.040Z,1.00
2019-04-24T18:27:31.342Z,94.00
2019-04-24T18:30:01.977Z,99.90
2019-04-24T18:32:31.496Z,99.90
2019-04-24T18:35:00.490Z,96.80
2019-04-24T18:37:29.381Z,1.00
2019-04-24T18:39:58.269Z,99.90
2019-04-24T18:42:27.282Z,99.90
2019-04-24T18:44:56.254Z,99.90
2019-04-24T18:47:25.151Z,99.90
2019-04-24T18:49:54.010Z,1.00
2019-04-24T18:52:22.923Z,99.90
2019-04-24T18:54:51.995Z,17.20
2019-04-24T18:57:22.146Z,13.10
2019-04-24T18:59:51.678Z,99.90
2019-04-24T19:02:22.013Z,1.00
2019-04-24T19:04:51.403Z,1.00
2019-04-24T19:07:22.015Z,99.90
2019-04-24T19:09:51.626Z,1.00
2019-04-24T19:12:22.090Z,99.90
2019-04-24T19:14:52.073Z,99.90
2019-04-24T19:17:21.295Z,99.90
2019-04-24T19:19:50.259Z,99.90
2019-04-24T19:22:19.126Z,99.90
2019-04-24T19:24:48.119Z,99.90
2019-04-24T19:27:17.454Z,99.90
2019-04-24T19:29:47.028Z,99.90
2019-04-24T19:32:16.709Z,99.90
2019-04-24T19:34:45.934Z,90.20
2019-04-24T19:37:15.282Z,92.60
2019-04-24T19:39:44.222Z,1.00
2019-04-24T19:42:14.022Z,1.00
2019-04-24T19:44:43.869Z,1.00
2019-04-24T19:47:12.998Z,99.90
2019-04-24T19:49:42.035Z,99.90
2019-04-24T19:52:12.871Z,99.90
2019-04-24T19:54:41.636Z,1.00
2019-04-24T19:57:17.651Z,1.00
2019-04-24T19:59:41.287Z,1.00
2019-04-24T20:02:12.601Z,1.00
2019-04-24T20:04:41.798Z,1.00
2019-04-24T20:07:11.318Z,29.50
2019-04-24T20:09:51.280Z,1.00
2019-04-24T20:12:22.898Z,99.90
2019-04-24T20:14:51.517Z,99.90
2019-04-24T20:17:21.084Z,99.90
2019-04-24T20:19:51.726Z,1.00
2019-04-24T20:22:22.905Z,1.00
2019-04-24T20:24:52.488Z,99.90
2019-04-24T20:27:22.115Z,1.00
2019-04-24T20:29:51.229Z,99.90
2019-04-24T20:32:21.831Z,1.00
2019-04-24T20:34:51.760Z,1.00
2019-04-24T20:37:20.746Z,1.00
2019-04-24T20:39:49.735Z,99.90
2019-04-24T20:42:19.345Z,1.00
2019-04-24T20:44:48.467Z,99.90
2019-04-24T20:47:18.161Z,1.00
2019-04-24T20:49:47.260Z,1.00
2019-04-24T20:52:16.791Z,99.90
2019-04-24T20:54:45.946Z,1.00
2019-04-24T20:57:14.858Z,1.00
2019-04-24T20:59:43.721Z,1.00
2019-04-24T21:02:12.527Z,1.00
2019-04-24T21:04:41.402Z,1.00
2019-04-24T21:07:11.858Z,96.40
2019-04-24T21:09:42.299Z,99.90
2019-04-24T21:14:41.683Z,1.00
2019-04-24T21:17:10.168Z,1.00
2019-04-24T21:19:38.645Z,1.00
2019-04-24T21:22:07.072Z,1.00
2019-04-24T21:24:35.564Z,1.00
2019-04-24T21:27:04.121Z,1.00
2019-04-24T21:29:33.408Z,1.00
2019-04-24T21:32:02.558Z,1.00
2019-04-24T21:34:32.979Z,1.00
2019-04-24T21:37:01.580Z,1.00
2019-04-24T21:39:31.121Z,1.00
2019-04-24T21:42:01.750Z,1.00
2019-04-24T21:44:31.906Z,99.90
2019-04-24T21:47:01.970Z,1.00
2019-04-24T21:49:30.988Z,1.00
2019-04-24T21:51:59.777Z,1.00
2019-04-24T21:54:28.762Z,1.00
2019-04-24T21:56:57.372Z,1.00
2019-04-24T21:59:25.801Z,1.00
2019-04-24T22:02:10.760Z,1.00
2019-04-24T22:04:42.060Z,1.00
2019-04-24T22:07:18.552Z,1.00
2019-04-24T22:09:47.318Z,1.00
2019-04-24T22:12:16.656Z,1.00
2019-04-24T22:14:45.236Z,1.00
2019-04-24T22:17:14.328Z,1.00
2019-04-24T22:19:42.757Z,1.00
2019-04-24T22:22:12.836Z,1.00
2019-04-24T22:24:54.699Z,1.00
2019-04-24T22:27:34.271Z,1.00
2019-04-24T22:30:03.062Z,1.00
2019-04-24T22:32:35.653Z,1.00
2019-04-24T22:35:15.940Z,1.00
2019-04-24T22:37:44.554Z,1.00
2019-04-24T22:40:24.077Z,1.00
2019-04-24T22:42:52.704Z,1.00
2019-04-24T22:45:21.498Z,1.00
2019-04-24T22:47:52.093Z,1.00
2019-04-24T22:50:20.728Z,1.00
2019-04-24T22:52:49.160Z,1.00
2019-04-24T22:55:18.356Z,1.00
2019-04-24T22:57:46.826Z,1.00
2019-04-24T23:00:22.134Z,1.00
2019-04-24T23:02:52.099Z,1.00
2019-04-24T23:05:21.122Z,1.00
2019-04-24T23:07:49.540Z,1.00
2019-04-24T23:10:18.004Z,1.00
2019-04-24T23:12:47.092Z,1.00
2019-04-24T23:15:16.599Z,1.00
2019-04-24T23:17:45.021Z,1.00
2019-04-24T23:20:13.880Z,1.00
2019-04-24T23:23:02.804Z,1.00
2019-04-24T23:25:36.127Z,1.00
2019-04-24T23:28:22.610Z,1.00
2019-04-24T23:30:53.056Z,1.00
2019-04-24T23:33:33.758Z,1.00
2019-04-24T23:36:02.641Z,1.00
2019-04-24T23:38:31.384Z,1.00
2019-04-24T23:41:00.001Z,1.00
2019-04-24T23:43:28.428Z,1.00
2019-04-24T23:45:56.920Z,1.00
2019-04-24T23:48:25.348Z,1.00
2019-04-24T23:50:53.792Z,1.00
2019-04-24T23:53:22.391Z,1.00
2019-04-24T23:55:50.887Z,1.00
2019-04-24T23:58:19.445Z,1.00
